Time;durP1;ratioP1;P1;durP2;ratioP2;P2;SDS_P1;SDS_P2;PMS_P1;PMS_P2;Temp;Humidity;BMP_temperature;BMP_pressure;BME280_temperature;BME280_humidity;BME280_pressure;Samples;Min_cycle;Max_cycle;Signal;HPM_P1;HPM_P2
2022/04/23 00:00:22;;;;;;;13.27;8.13;;;;;;;;;;5069040;28;20482;-84
2022/04/23 00:02:48;;;;;;;13.63;8.25;;;;;;;;;;5064191;28;20514;-82
2022/04/23 00:05:15;;;;;;;12.05;8.25;;;;;;;;;;5062168;28;20056;-83
2022/04/23 00:07:41;;;;;;;14.98;8.25;;;;;;;;;;5064026;28;20474;-83
2022/04/23 00:10:08;;;;;;;14.90;9.27;;;;;;;;;;5062826;28;20056;-85
2022/04/23 00:12:34;;;;;;;10.73;7.97;;;;;;;;;;5043839;28;20494;-83
2022/04/23 00:15:00;;;;;;;16.27;8.45;;;;;;;;;;5060507;28;20029;-82
2022/04/23 00:17:26;;;;;;;15.50;9.70;;;;;;;;;;5043603;28;20581;-82
2022/04/23 00:19:53;;;;;;;15.43;8.60;;;;;;;;;;5063451;28;20123;-85
2022/04/23 00:22:19;;;;;;;16.40;9.15;;;;;;;;;;5066615;28;20085;-82
2022/04/23 00:24:45;;;;;;;12.57;9.23;;;;;;;;;;5042167;28;20117;-81
2022/04/23 00:27:11;;;;;;;15.98;9.57;;;;;;;;;;5059619;28;20032;-85
2022/04/23 00:29:39;;;;;;;17.13;9.00;;;;;;;;;;5061593;28;20033;-85
2022/04/23 00:32:06;;;;;;;13.18;9.57;;;;;;;;;;5063683;28;20029;-87
2022/04/23 00:34:32;;;;;;;17.42;9.98;;;;;;;;;;5059244;28;20040;-83
2022/04/23 00:36:58;;;;;;;15.10;10.25;;;;;;;;;;5067569;28;20029;-84
2022/04/23 00:39:24;;;;;;;18.40;11.43;;;;;;;;;;5051412;28;20491;-83
2022/04/23 00:41:52;;;;;;;20.33;12.18;;;;;;;;;;5051505;28;20114;-81
2022/04/23 00:44:19;;;;;;;16.45;10.95;;;;;;;;;;5070337;28;20024;-80
2022/04/23 00:46:45;;;;;;;15.45;11.23;;;;;;;;;;5053297;28;20119;-83
2022/04/23 00:49:11;;;;;;;18.65;11.70;;;;;;;;;;5070959;28;20021;-82
2022/04/23 00:51:40;;;;;;;19.25;10.90;;;;;;;;;;5067730;28;20033;-85
2022/04/23 00:54:07;;;;;;;17.75;10.68;;;;;;;;;;5072090;28;20032;-84
2022/04/23 00:56:34;;;;;;;18.70;11.48;;;;;;;;;;5070074;28;20049;-85
2022/04/23 00:59:02;;;;;;;19.90;10.88;;;;;;;;;;5067641;28;20529;-81
2022/04/23 01:01:28;;;;;;;17.92;12.25;;;;;;;;;;5074892;28;20028;-85
2022/04/23 01:03:54;;;;;;;18.70;11.38;;;;;;;;;;5070384;28;20056;-83
2022/04/23 01:06:20;;;;;;;23.65;12.60;;;;;;;;;;5051309;28;20068;-88
2022/04/23 01:08:47;;;;;;;19.35;12.18;;;;;;;;;;5068113;28;20041;-81
2022/04/23 01:11:13;;;;;;;20.27;12.63;;;;;;;;;;5053566;28;20051;-83
2022/04/23 01:13:43;;;;;;;21.42;12.77;;;;;;;;;;5068522;28;20068;-84
2022/04/23 01:16:09;;;;;;;21.30;12.52;;;;;;;;;;5069050;28;20107;-83
2022/04/23 01:18:39;;;;;;;23.58;13.40;;;;;;;;;;5062474;28;20081;-83
2022/04/23 01:21:05;;;;;;;20.15;13.02;;;;;;;;;;5069279;28;20048;-84
2022/04/23 01:23:32;;;;;;;19.15;13.27;;;;;;;;;;5065683;28;20060;-82
2022/04/23 01:25:58;;;;;;;21.45;14.30;;;;;;;;;;5065474;28;20039;-84
2022/04/23 01:28:26;;;;;;;24.42;14.35;;;;;;;;;;5064240;28;20063;-83
2022/04/23 01:30:52;;;;;;;28.92;14.10;;;;;;;;;;5067105;28;20040;-81
2022/04/23 01:33:20;;;;;;;19.58;13.57;;;;;;;;;;5071234;28;20048;-81
2022/04/23 01:35:46;;;;;;;22.05;14.60;;;;;;;;;;5067883;28;20036;-82
2022/04/23 01:38:13;;;;;;;22.40;14.95;;;;;;;;;;5067783;28;20024;-81
2022/04/23 01:40:39;;;;;;;22.17;14.02;;;;;;;;;;5073651;28;20167;-81
2022/04/23 01:43:05;;;;;;;20.73;14.88;;;;;;;;;;5075063;28;20024;-81
2022/04/23 01:45:31;;;;;;;19.65;14.40;;;;;;;;;;5075824;28;20092;-83
2022/04/23 01:47:58;;;;;;;22.17;15.43;;;;;;;;;;5063780;28;20063;-82
2022/04/23 01:50:24;;;;;;;23.52;15.43;;;;;;;;;;5067107;28;20032;-84
2022/04/23 01:52:50;;;;;;;24.98;15.50;;;;;;;;;;5066304;28;20127;-84
2022/04/23 01:55:16;;;;;;;21.65;15.95;;;;;;;;;;5069012;28;20508;-85
2022/04/23 01:57:42;;;;;;;26.10;16.13;;;;;;;;;;5071031;28;20028;-85
2022/04/23 02:00:10;;;;;;;23.73;17.45;;;;;;;;;;5065031;28;20480;-83
2022/04/23 02:02:37;;;;;;;27.83;18.40;;;;;;;;;;5066268;28;20045;-84
2022/04/23 02:05:07;;;;;;;25.48;18.05;;;;;;;;;;5067014;28;20610;-84
2022/04/23 02:07:45;;;;;;;30.85;18.80;;;;;;;;;;5064624;28;20464;-86
2022/04/23 02:10:13;;;;;;;26.50;17.90;;;;;;;;;;5060157;28;20094;-83
2022/04/23 02:12:39;;;;;;;27.70;18.30;;;;;;;;;;5053719;28;20416;-84
2022/04/23 02:15:07;;;;;;;31.33;18.85;;;;;;;;;;5062507;28;20111;-81
2022/04/23 02:17:40;;;;;;;29.30;19.83;;;;;;;;;;5057702;28;20044;-81
2022/04/23 02:20:07;;;;;;;27.35;19.52;;;;;;;;;;5055576;28;20500;-82
2022/04/23 02:22:33;;;;;;;31.42;20.50;;;;;;;;;;5058416;28;20033;-87
2022/04/23 02:25:00;;;;;;;29.35;19.70;;;;;;;;;;5062255;28;20024;-82
2022/04/23 02:27:26;;;;;;;25.63;19.23;;;;;;;;;;5064096;28;20398;-83
2022/04/23 02:29:52;;;;;;;27.77;20.23;;;;;;;;;;5066282;28;20451;-85
2022/04/23 02:32:18;;;;;;;32.38;21.83;;;;;;;;;;5059504;28;20047;-84
2022/04/23 02:34:45;;;;;;;31.08;19.83;;;;;;;;;;5067648;28;20021;-86
2022/04/23 02:37:11;;;;;;;29.00;21.05;;;;;;;;;;5068077;28;20068;-85
2022/04/23 02:39:38;;;;;;;34.03;21.63;;;;;;;;;;5042383;28;20029;-81
2022/04/23 02:42:05;;;;;;;28.92;20.25;;;;;;;;;;5065142;28;20103;-86
2022/04/23 02:44:31;;;;;;;32.90;21.73;;;;;;;;;;5066493;28;20025;-85
2022/04/23 02:46:57;;;;;;;30.77;22.42;;;;;;;;;;5063842;28;20361;-85
2022/04/23 02:49:23;;;;;;;34.13;22.58;;;;;;;;;;5067439;28;20029;-85
2022/04/23 02:51:50;;;;;;;32.10;22.27;;;;;;;;;;5068417;28;20032;-86
2022/04/23 02:54:18;;;;;;;33.95;22.63;;;;;;;;;;5066951;28;20071;-86
2022/04/23 02:56:45;;;;;;;29.67;22.70;;;;;;;;;;5068432;28;20058;-85
2022/04/23 02:59:11;;;;;;;31.27;23.15;;;;;;;;;;5069506;28;20421;-84
2022/04/23 03:01:39;;;;;;;34.30;23.50;;;;;;;;;;5066558;28;20055;-81
2022/04/23 03:04:05;;;;;;;33.53;23.08;;;;;;;;;;5050999;28;20041;-86
2022/04/23 03:06:33;;;;;;;35.90;24.27;;;;;;;;;;5062277;28;20025;-88
2022/04/23 03:09:03;;;;;;;35.30;25.08;;;;;;;;;;5065083;28;20033;-85
2022/04/23 03:11:30;;;;;;;37.92;25.20;;;;;;;;;;5042499;28;20033;-86
2022/04/23 03:13:56;;;;;;;34.05;24.85;;;;;;;;;;5064130;28;20359;-81
2022/04/23 03:16:22;;;;;;;34.17;25.17;;;;;;;;;;5066808;28;20135;-86
2022/04/23 03:18:48;;;;;;;39.00;26.00;;;;;;;;;;5061939;28;20032;-86
2022/04/23 03:21:14;;;;;;;38.42;25.95;;;;;;;;;;5046003;28;20055;-85
2022/04/23 03:23:40;;;;;;;34.22;25.23;;;;;;;;;;5073622;28;20238;-84
2022/04/23 03:26:06;;;;;;;34.58;25.85;;;;;;;;;;5065039;28;20095;-85
2022/04/23 03:28:32;;;;;;;36.72;27.27;;;;;;;;;;5069704;28;20094;-83
2022/04/23 03:30:58;;;;;;;38.60;27.77;;;;;;;;;;5071088;28;20025;-84
2022/04/23 03:33:25;;;;;;;38.20;28.10;;;;;;;;;;5064467;28;20029;-82
2022/04/23 03:35:50;;;;;;;37.30;27.23;;;;;;;;;;5066934;28;20012;-83
2022/04/23 03:38:17;;;;;;;38.30;28.00;;;;;;;;;;5065679;28;20039;-82
2022/04/23 03:40:43;;;;;;;38.50;28.58;;;;;;;;;;5072189;28;20047;-84
2022/04/23 03:43:09;;;;;;;40.47;29.20;;;;;;;;;;5070697;28;20040;-82
2022/04/23 03:45:36;;;;;;;44.35;29.10;;;;;;;;;;5070938;28;20212;-83
2022/04/23 03:48:02;;;;;;;48.25;30.42;;;;;;;;;;5067950;28;20039;-86
2022/04/23 03:50:29;;;;;;;42.97;30.35;;;;;;;;;;5070731;28;20263;-82
2022/04/23 03:52:58;;;;;;;47.45;31.45;;;;;;;;;;5066597;28;20052;-82
2022/04/23 03:55:26;;;;;;;43.55;30.17;;;;;;;;;;5063514;28;20036;-87
2022/04/23 03:57:54;;;;;;;48.03;32.38;;;;;;;;;;5065885;28;20447;-82
2022/04/23 04:00:21;;;;;;;45.42;32.42;;;;;;;;;;5063747;28;20111;-84
2022/04/23 04:02:47;;;;;;;48.00;32.95;;;;;;;;;;5059255;28;20072;-87
2022/04/23 04:05:13;;;;;;;47.40;33.25;;;;;;;;;;5041053;28;20053;-85
2022/04/23 04:07:43;;;;;;;47.83;34.60;;;;;;;;;;5055794;28;20496;-85
2022/04/23 04:10:14;;;;;;;50.65;33.40;;;;;;;;;;5039903;28;20021;-83
2022/04/23 04:12:40;;;;;;;50.60;34.65;;;;;;;;;;5058030;28;20033;-84
2022/04/23 04:15:07;;;;;;;51.40;34.42;;;;;;;;;;5065042;28;20471;-87
2022/04/23 04:17:33;;;;;;;44.75;32.90;;;;;;;;;;5057166;28;20097;-86
2022/04/23 04:19:59;;;;;;;50.65;34.08;;;;;;;;;;5063470;28;20029;-88
2022/04/23 04:22:25;;;;;;;49.58;34.83;;;;;;;;;;5058776;28;20060;-82
2022/04/23 04:24:52;;;;;;;49.53;34.13;;;;;;;;;;5066184;28;20089;-84
2022/04/23 04:27:20;;;;;;;52.05;34.70;;;;;;;;;;5061609;28;20044;-87
2022/04/23 04:29:46;;;;;;;50.65;34.72;;;;;;;;;;5065518;28;20387;-81
2022/04/23 04:32:13;;;;;;;49.17;34.55;;;;;;;;;;5061573;28;20028;-85
2022/04/23 04:34:39;;;;;;;50.42;33.72;;;;;;;;;;5066467;28;20057;-86
2022/04/23 04:37:09;;;;;;;51.58;36.70;;;;;;;;;;5058213;28;20043;-85
2022/04/23 04:39:36;;;;;;;52.17;35.70;;;;;;;;;;5064635;28;20021;-84
2022/04/23 04:42:02;;;;;;;50.35;35.13;;;;;;;;;;5044237;28;20622;-84
2022/04/23 04:44:28;;;;;;;53.55;36.25;;;;;;;;;;5064709;28;20393;-83
2022/04/23 04:46:54;;;;;;;50.65;36.80;;;;;;;;;;5066513;28;20028;-85
2022/04/23 04:49:22;;;;;;;51.35;35.28;;;;;;;;;;5065752;28;20115;-84
2022/04/23 04:51:49;;;;;;;50.40;34.33;;;;;;;;;;5065605;28;20122;-85
2022/04/23 04:54:17;;;;;;;52.20;35.10;;;;;;;;;;5064461;28;20094;-84
2022/04/23 04:56:44;;;;;;;49.55;35.22;;;;;;;;;;5040994;28;20041;-81
2022/04/23 04:59:10;;;;;;;49.33;35.38;;;;;;;;;;5075139;28;20032;-83
2022/04/23 05:01:36;;;;;;;46.80;33.72;;;;;;;;;;5061606;28;20040;-82
2022/04/23 05:04:02;;;;;;;51.60;35.95;;;;;;;;;;5066625;28;20044;-85
2022/04/23 05:06:28;;;;;;;52.70;35.55;;;;;;;;;;5064791;28;20077;-85
2022/04/23 05:08:54;;;;;;;47.00;33.55;;;;;;;;;;5069883;28;20021;-85
2022/04/23 05:11:20;;;;;;;46.88;33.92;;;;;;;;;;5064323;28;20147;-82
2022/04/23 05:13:46;;;;;;;47.22;33.22;;;;;;;;;;5062390;28;20396;-82
2022/04/23 05:16:12;;;;;;;46.35;31.30;;;;;;;;;;5064797;28;20041;-83
2022/04/23 05:18:38;;;;;;;44.00;31.40;;;;;;;;;;5064487;28;20059;-81
2022/04/23 05:21:04;;;;;;;46.53;30.90;;;;;;;;;;5064423;28;20032;-81
2022/04/23 05:23:31;;;;;;;43.03;30.65;;;;;;;;;;5069126;28;20025;-85
2022/04/23 05:25:57;;;;;;;41.28;30.27;;;;;;;;;;5066438;28;20063;-84
2022/04/23 05:28:23;;;;;;;38.67;29.25;;;;;;;;;;5049517;28;20040;-82
2022/04/23 05:30:49;;;;;;;39.47;28.88;;;;;;;;;;5074267;28;20075;-79
2022/04/23 05:33:15;;;;;;;40.47;28.73;;;;;;;;;;5085522;28;20050;-80
2022/04/23 05:35:42;;;;;;;34.92;25.58;;;;;;;;;;5081912;28;20067;-81
2022/04/23 05:38:08;;;;;;;39.10;28.95;;;;;;;;;;5082167;28;20167;-82
2022/04/23 05:40:34;;;;;;;41.42;26.67;;;;;;;;;;5071254;28;20084;-81
2022/04/23 05:43:00;;;;;;;38.97;26.38;;;;;;;;;;5065254;28;20041;-84
2022/04/23 05:45:26;;;;;;;33.78;25.80;;;;;;;;;;5068781;28;20040;-80
2022/04/23 05:47:52;;;;;;;34.88;24.73;;;;;;;;;;5065355;28;20105;-83
2022/04/23 05:50:18;;;;;;;34.03;24.52;;;;;;;;;;5063001;28;20067;-81
2022/04/23 05:52:45;;;;;;;31.30;23.77;;;;;;;;;;5068234;28;20047;-81
2022/04/23 05:55:11;;;;;;;30.85;23.90;;;;;;;;;;5068211;28;20060;-79
2022/04/23 05:57:37;;;;;;;32.28;23.83;;;;;;;;;;5063234;28;20155;-82
2022/04/23 06:00:04;;;;;;;29.45;22.25;;;;;;;;;;5065754;28;20021;-80
2022/04/23 06:02:29;;;;;;;28.63;22.67;;;;;;;;;;5067585;28;20409;-79
2022/04/23 06:04:55;;;;;;;27.80;21.40;;;;;;;;;;5065902;28;20057;-80
2022/04/23 06:07:21;;;;;;;28.50;22.00;;;;;;;;;;5062218;28;20056;-83
2022/04/23 06:09:47;;;;;;;27.20;22.15;;;;;;;;;;5066751;28;20060;-83
2022/04/23 06:12:13;;;;;;;28.20;20.77;;;;;;;;;;5065228;28;20032;-83
2022/04/23 06:14:39;;;;;;;26.08;20.33;;;;;;;;;;5065106;28;20076;-80
2022/04/23 06:17:10;;;;;;;25.88;20.30;;;;;;;;;;5060171;28;20116;-79
2022/04/23 06:19:37;;;;;;;25.80;20.77;;;;;;;;;;5061464;28;20033;-80
2022/04/23 06:22:03;;;;;;;27.65;20.48;;;;;;;;;;5061629;28;20034;-80
2022/04/23 06:24:29;;;;;;;27.95;19.02;;;;;;;;;;5059243;28;20060;-81
2022/04/23 06:26:55;;;;;;;27.70;20.52;;;;;;;;;;5055276;28;20052;-79
2022/04/23 06:29:21;;;;;;;24.70;19.17;;;;;;;;;;5059646;28;20036;-83
2022/04/23 06:31:47;;;;;;;26.38;18.40;;;;;;;;;;5055874;28;20029;-81
2022/04/23 06:34:14;;;;;;;27.70;20.23;;;;;;;;;;5063995;28;20032;-81
2022/04/23 06:36:40;;;;;;;28.38;19.98;;;;;;;;;;5066250;28;20043;-83
2022/04/23 06:39:06;;;;;;;26.75;19.98;;;;;;;;;;5072042;28;20573;-82
2022/04/23 06:41:32;;;;;;;24.40;19.85;;;;;;;;;;5094426;28;20039;-84
2022/04/23 06:43:58;;;;;;;26.65;19.88;;;;;;;;;;5094240;28;20461;-83
2022/04/23 06:46:24;;;;;;;26.10;19.83;;;;;;;;;;5090812;28;20042;-82
2022/04/23 06:48:50;;;;;;;25.33;19.63;;;;;;;;;;5078445;28;20040;-80
2022/04/23 06:51:16;;;;;;;29.73;20.27;;;;;;;;;;5098071;28;20089;-80
2022/04/23 06:53:42;;;;;;;25.58;20.50;;;;;;;;;;5095228;28;20442;-85
2022/04/23 06:56:08;;;;;;;27.85;21.10;;;;;;;;;;5093447;28;20044;-82
2022/04/23 06:58:35;;;;;;;28.63;21.60;;;;;;;;;;5087201;28;20097;-83
2022/04/23 07:01:01;;;;;;;25.98;20.50;;;;;;;;;;5074999;28;20012;-81
2022/04/23 07:03:27;;;;;;;35.78;21.25;;;;;;;;;;5082778;28;20128;-82
2022/04/23 07:05:53;;;;;;;27.40;21.55;;;;;;;;;;5082955;28;20052;-84
2022/04/23 07:08:19;;;;;;;28.45;21.83;;;;;;;;;;5080458;28;20000;-83
2022/04/23 07:10:45;;;;;;;31.35;22.00;;;;;;;;;;5087454;28;20111;-83
2022/04/23 07:13:15;;;;;;;29.33;21.73;;;;;;;;;;5079845;28;20024;-84
2022/04/23 07:15:41;;;;;;;28.60;21.03;;;;;;;;;;5083586;28;20105;-82
2022/04/23 07:18:07;;;;;;;33.67;21.05;;;;;;;;;;5096081;28;20024;-83
2022/04/23 07:20:34;;;;;;;27.38;21.17;;;;;;;;;;5081511;28;20028;-87
2022/04/23 07:25:45;;;;;;;28.35;22.05;;;;;;;;;;5088798;28;20094;-83
2022/04/23 07:28:11;;;;;;;28.83;22.05;;;;;;;;;;5075672;28;20036;-85
2022/04/23 07:30:37;;;;;;;31.27;22.85;;;;;;;;;;5090906;28;20096;-83
2022/04/23 07:33:04;;;;;;;36.28;22.50;;;;;;;;;;5071969;28;20127;-85
2022/04/23 07:38:16;;;;;;;27.33;21.52;;;;;;;;;;5075166;28;20408;-87
2022/04/23 07:40:42;;;;;;;30.63;21.15;;;;;;;;;;5081824;28;20053;-85
2022/04/23 07:43:10;;;;;;;29.08;22.83;;;;;;;;;;5073730;28;20033;-85
2022/04/23 07:45:37;;;;;;;28.15;21.67;;;;;;;;;;5069399;28;20036;-83
2022/04/23 07:48:03;;;;;;;27.45;20.48;;;;;;;;;;5062125;28;20110;-85
2022/04/23 07:50:29;;;;;;;26.65;20.50;;;;;;;;;;5064227;28;20041;-85
2022/04/23 07:52:55;;;;;;;27.23;21.08;;;;;;;;;;5082340;28;20200;-85
2022/04/23 07:55:21;;;;;;;25.30;20.80;;;;;;;;;;5078754;28;20107;-87
2022/04/23 07:57:50;;;;;;;25.33;21.13;;;;;;;;;;5077947;28;20240;-82
2022/04/23 08:00:16;;;;;;;28.65;21.17;;;;;;;;;;5084745;28;20178;-85
2022/04/23 08:02:42;;;;;;;26.83;21.15;;;;;;;;;;5081361;28;20036;-82
2022/04/23 08:05:12;;;;;;;25.58;19.40;;;;;;;;;;5074497;28;20109;-80
2022/04/23 08:07:44;;;;;;;26.83;20.67;;;;;;;;;;5085392;28;20145;-83
2022/04/23 08:10:10;;;;;;;27.85;21.90;;;;;;;;;;5090841;28;20059;-85
2022/04/23 08:12:36;;;;;;;26.67;19.95;;;;;;;;;;5063669;28;20056;-84
2022/04/23 08:15:03;;;;;;;25.65;20.00;;;;;;;;;;5096001;28;20021;-83
2022/04/23 08:17:29;;;;;;;26.40;19.92;;;;;;;;;;5096282;28;20036;-82
2022/04/23 08:19:55;;;;;;;25.65;20.27;;;;;;;;;;5090105;28;20032;-84
2022/04/23 08:22:21;;;;;;;26.02;19.63;;;;;;;;;;5085435;28;20049;-80
2022/04/23 08:24:47;;;;;;;28.33;21.25;;;;;;;;;;5083626;28;20033;-82
2022/04/23 08:27:13;;;;;;;27.83;20.73;;;;;;;;;;5095332;28;20622;-81
2022/04/23 08:32:24;;;;;;;29.13;20.73;;;;;;;;;;5083089;28;20099;-80
2022/04/23 08:34:50;;;;;;;27.40;19.73;;;;;;;;;;5079233;28;20044;-83
2022/04/23 08:37:16;;;;;;;25.98;20.23;;;;;;;;;;5068954;28;20104;-80
2022/04/23 08:39:42;;;;;;;27.67;20.20;;;;;;;;;;5089234;28;20480;-83
2022/04/23 08:42:10;;;;;;;24.10;19.13;;;;;;;;;;5091656;28;20480;-88
2022/04/23 08:44:40;;;;;;;23.58;19.45;;;;;;;;;;5087683;28;20028;-82
2022/04/23 08:47:08;;;;;;;27.27;19.83;;;;;;;;;;5077383;28;20058;-82
2022/04/23 08:49:38;;;;;;;34.47;19.13;;;;;;;;;;5091662;28;20037;-82
2022/04/23 08:52:15;;;;;;;27.20;19.40;;;;;;;;;;5068680;28;20029;-82
2022/04/23 08:54:41;;;;;;;26.88;20.92;;;;;;;;;;5046071;28;20402;-79
2022/04/23 08:57:07;;;;;;;25.05;19.90;;;;;;;;;;5061765;28;20482;-82
2022/04/23 08:59:34;;;;;;;24.67;20.48;;;;;;;;;;5056342;28;20481;-86
2022/04/23 09:02:01;;;;;;;29.40;18.98;;;;;;;;;;5069299;28;20163;-86
2022/04/23 09:04:27;;;;;;;27.60;20.17;;;;;;;;;;5075250;28;20045;-85
2022/04/23 09:06:54;;;;;;;24.33;19.73;;;;;;;;;;5056000;28;20033;-82
2022/04/23 09:09:24;;;;;;;23.80;18.92;;;;;;;;;;5055645;28;20086;-85
2022/04/23 09:11:52;;;;;;;25.23;18.10;;;;;;;;;;5056344;28;20494;-83
2022/04/23 09:14:24;;;;;;;25.67;19.65;;;;;;;;;;5073822;28;20100;-81
2022/04/23 09:25:12;;;;;;;26.25;18.95;;;;;;;;;;5069617;28;20062;-82
2022/04/23 09:27:40;;;;;;;29.00;19.67;;;;;;;;;;5060948;28;20205;-83
2022/04/23 09:30:06;;;;;;;24.90;18.80;;;;;;;;;;5079374;28;20104;-84
2022/04/23 09:32:33;;;;;;;24.65;20.88;;;;;;;;;;5081840;28;20052;-82
2022/04/23 09:35:05;;;;;;;24.13;19.58;;;;;;;;;;5074913;28;20029;-84
2022/04/23 09:40:17;;;;;;;23.35;19.05;;;;;;;;;;5062401;28;20043;-86
2022/04/23 09:42:54;;;;;;;29.70;19.92;;;;;;;;;;5066473;28;20028;-81
2022/04/23 09:45:20;;;;;;;28.05;20.85;;;;;;;;;;5077107;28;20123;-82
2022/04/23 09:47:46;;;;;;;29.17;21.38;;;;;;;;;;5064597;28;20033;-84
2022/04/23 09:50:15;;;;;;;32.10;22.45;;;;;;;;;;5060924;28;20067;-80
2022/04/23 09:52:42;;;;;;;27.42;20.30;;;;;;;;;;5087069;28;20432;-81
2022/04/23 09:55:09;;;;;;;26.00;20.15;;;;;;;;;;5082366;28;20394;-82
2022/04/23 09:57:37;;;;;;;32.35;20.55;;;;;;;;;;5098683;28;20068;-80
2022/04/23 10:00:03;;;;;;;30.17;22.73;;;;;;;;;;5091024;28;20028;-80
2022/04/23 10:02:29;;;;;;;31.38;20.25;;;;;;;;;;5078748;28;20033;-79
2022/04/23 10:04:57;;;;;;;34.45;21.40;;;;;;;;;;5083455;28;20063;-80
2022/04/23 10:07:25;;;;;;;27.10;21.52;;;;;;;;;;5088638;28;20020;-82
2022/04/23 10:09:51;;;;;;;28.45;21.02;;;;;;;;;;5071122;28;20039;-78
2022/04/23 10:12:19;;;;;;;28.83;20.23;;;;;;;;;;5053759;28;20029;-83
2022/04/23 10:14:59;;;;;;;25.02;18.80;;;;;;;;;;5084397;28;20028;-82
2022/04/23 10:17:26;;;;;;;25.90;20.17;;;;;;;;;;5075541;28;20029;-81
2022/04/23 10:19:52;;;;;;;26.17;19.75;;;;;;;;;;5074511;28;20075;-78
2022/04/23 10:22:21;;;;;;;27.35;18.38;;;;;;;;;;5053720;28;20025;-86
2022/04/23 10:25:02;;;;;;;24.75;19.02;;;;;;;;;;5070839;28;20116;-80
2022/04/23 10:27:29;;;;;;;;;;;;;;;;;;5091457;28;20064;-83
2022/04/23 10:30:04;;;;;;;36.13;18.30;;;;;;;;;;5092387;28;19904;-84
2022/04/23 10:32:38;;;;;;;24.63;18.45;;;;;;;;;;5089442;28;20121;-85
2022/04/23 10:35:24;;;;;;;22.50;17.92;;;;;;;;;;5076886;28;20078;-85
2022/04/23 10:37:50;;;;;;;29.13;19.05;;;;;;;;;;5089223;28;20028;-84
2022/04/23 10:40:18;;;;;;;25.50;19.02;;;;;;;;;;5090134;28;20036;-81
2022/04/23 10:43:02;;;;;;;25.98;18.33;;;;;;;;;;5096649;28;20031;-82
2022/04/23 10:45:35;;;;;;;32.95;20.02;;;;;;;;;;5092153;28;20500;-81
2022/04/23 10:48:23;;;;;;;25.02;18.25;;;;;;;;;;5094652;28;20051;-82
2022/04/23 10:51:02;;;;;;;27.67;19.25;;;;;;;;;;5084542;28;20028;-84
2022/04/23 10:53:37;;;;;;;28.42;19.70;;;;;;;;;;5088492;28;20032;-82
2022/04/23 10:56:07;;;;;;;26.98;19.10;;;;;;;;;;5078488;28;20051;-82
2022/04/23 10:58:33;;;;;;;27.95;18.63;;;;;;;;;;5093782;28;20035;-82
2022/04/23 11:01:23;;;;;;;26.30;18.75;;;;;;;;;;5087310;28;20551;-85
2022/04/23 11:03:52;;;;;;;24.93;19.97;;;;;;;;;;5094767;28;20048;-82
2022/04/23 11:12:18;;;;;;;26.77;19.65;;;;;;;;;;5096372;28;20576;-79
2022/04/23 11:14:45;;;;;;;28.52;19.38;;;;;;;;;;5091924;28;20020;-83
2022/04/23 11:17:14;;;;;;;26.15;20.35;;;;;;;;;;5094002;28;20059;-80
2022/04/23 11:19:43;;;;;;;26.38;19.83;;;;;;;;;;5093707;28;20039;-87
2022/04/23 11:22:10;;;;;;;35.30;20.77;;;;;;;;;;5087794;28;20012;-85
2022/04/23 11:24:37;;;;;;;43.85;20.45;;;;;;;;;;5098071;28;20100;-83
2022/04/23 11:27:03;;;;;;;28.88;19.67;;;;;;;;;;5095659;28;20852;-83
2022/04/23 11:29:29;;;;;;;26.42;19.70;;;;;;;;;;5093922;28;20040;-81
2022/04/23 11:31:58;;;;;;;32.38;20.02;;;;;;;;;;5085416;28;20354;-82
2022/04/23 11:34:24;;;;;;;29.88;19.30;;;;;;;;;;5088315;28;20032;-81
2022/04/23 11:36:51;;;;;;;27.95;19.92;;;;;;;;;;5084664;28;20111;-82
2022/04/23 11:39:17;;;;;;;26.40;19.92;;;;;;;;;;5088832;28;20103;-82
2022/04/23 11:41:48;;;;;;;25.83;19.65;;;;;;;;;;5088445;28;20024;-82
2022/04/23 11:44:14;;;;;;;27.88;20.05;;;;;;;;;;5081497;28;20017;-80
2022/04/23 11:46:41;;;;;;;28.20;20.30;;;;;;;;;;5072900;28;20029;-80
2022/04/23 11:49:07;;;;;;;28.98;21.05;;;;;;;;;;5080973;28;20028;-80
2022/04/23 11:51:33;;;;;;;36.58;21.63;;;;;;;;;;5086807;28;20070;-82
2022/04/23 11:54:00;;;;;;;29.08;21.80;;;;;;;;;;5071995;28;20506;-84
2022/04/23 11:56:26;;;;;;;35.85;22.02;;;;;;;;;;5069320;28;20133;-80
2022/04/23 11:58:53;;;;;;;30.35;21.17;;;;;;;;;;5084088;28;20032;-81
2022/04/23 12:01:20;;;;;;;26.27;20.33;;;;;;;;;;5082627;28;20430;-77
2022/04/23 12:03:50;;;;;;;32.15;19.42;;;;;;;;;;5096536;28;20020;-81
2022/04/23 12:06:16;;;;;;;28.23;20.95;;;;;;;;;;5097490;28;20044;-81
2022/04/23 12:08:42;;;;;;;34.80;21.92;;;;;;;;;;5090548;28;20141;-81
2022/04/23 12:11:35;;;;;;;30.30;21.90;;;;;;;;;;5100791;28;20020;-79
2022/04/23 12:14:02;;;;;;;31.95;20.85;;;;;;;;;;5092862;28;20024;-82
2022/04/23 12:16:31;;;;;;;27.35;20.20;;;;;;;;;;5090893;28;20381;-82
2022/04/23 12:18:58;;;;;;;29.17;20.42;;;;;;;;;;5082024;28;20064;-81
2022/04/23 12:21:24;;;;;;;31.70;21.50;;;;;;;;;;5075186;28;20050;-83
2022/04/23 12:23:50;;;;;;;24.73;19.73;;;;;;;;;;5090652;28;20066;-80
2022/04/23 12:26:19;;;;;;;31.52;21.45;;;;;;;;;;5092156;28;20033;-79
2022/04/23 12:42:23;;;;;;;35.83;22.35;;;;;;;;;;5076429;28;20123;-82
2022/04/23 12:44:51;;;;;;;34.75;22.10;;;;;;;;;;5080187;28;20363;-78
2022/04/23 12:47:36;;;;;;;26.98;20.40;;;;;;;;;;5079099;28;20059;-77
2022/04/23 12:50:03;;;;;;;34.80;20.88;;;;;;;;;;5084578;28;20572;-77
2022/04/23 12:52:32;;;;;;;26.92;20.98;;;;;;;;;;5067450;28;20028;-77
2022/04/23 12:55:22;;;;;;;31.98;22.08;;;;;;;;;;5058102;28;20098;-76
2022/04/23 12:57:51;;;;;;;32.35;20.73;;;;;;;;;;5053593;28;20028;-77
2022/04/23 13:00:19;;;;;;;37.65;22.08;;;;;;;;;;5055877;28;20513;-76
2022/04/23 13:02:53;;;;;;;31.40;22.15;;;;;;;;;;5067857;28;20017;-76
2022/04/23 13:05:19;;;;;;;28.83;20.90;;;;;;;;;;5070327;28;20076;-77
2022/04/23 13:10:30;;;;;;;36.83;22.42;;;;;;;;;;5056262;28;20079;-78
2022/04/23 13:12:57;;;;;;;29.02;19.05;;;;;;;;;;5058509;28;20044;-77
2022/04/23 13:15:23;;;;;;;28.35;20.33;;;;;;;;;;5059337;28;20029;-76
2022/04/23 13:17:50;;;;;;;26.75;20.75;;;;;;;;;;5056278;28;20482;-77
2022/04/23 13:20:17;;;;;;;33.10;20.50;;;;;;;;;;5060397;28;20095;-77
2022/04/23 13:22:43;;;;;;;31.63;20.35;;;;;;;;;;5056516;28;20036;-76
2022/04/23 13:25:11;;;;;;;27.35;20.38;;;;;;;;;;5067926;28;20139;-77
2022/04/23 13:27:37;;;;;;;29.23;20.13;;;;;;;;;;5062620;28;20116;-76
2022/04/23 13:30:04;;;;;;;30.50;19.85;;;;;;;;;;5063726;28;20033;-76
2022/04/23 13:32:35;;;;;;;27.27;19.55;;;;;;;;;;5065700;28;20036;-77
2022/04/23 13:35:02;;;;;;;33.25;20.20;;;;;;;;;;5062848;28;20043;-76
2022/04/23 13:37:28;;;;;;;29.70;19.38;;;;;;;;;;5059305;28;20025;-76
2022/04/23 13:39:54;;;;;;;35.78;18.35;;;;;;;;;;5058237;28;20024;-78
2022/04/23 13:42:20;;;;;;;25.55;19.10;;;;;;;;;;5068410;28;20575;-77
2022/04/23 13:44:46;;;;;;;25.50;18.45;;;;;;;;;;5067985;28;20024;-76
2022/04/23 13:47:13;;;;;;;27.27;18.45;;;;;;;;;;5071342;28;20506;-77
2022/04/23 13:49:39;;;;;;;26.63;17.77;;;;;;;;;;5034451;28;20481;-77
2022/04/23 13:52:05;;;;;;;29.15;19.65;;;;;;;;;;5046388;28;20029;-76
2022/04/23 13:54:32;;;;;;;27.15;18.80;;;;;;;;;;5076429;28;20036;-77
2022/04/23 13:57:03;;;;;;;31.38;18.90;;;;;;;;;;5073453;28;20100;-75
2022/04/23 13:59:29;;;;;;;34.25;19.60;;;;;;;;;;5082404;28;20213;-75
2022/04/23 14:10:09;;;;;;;25.08;19.45;;;;;;;;;;5086507;28;20050;-76
2022/04/23 14:12:35;;;;;;;27.40;19.10;;;;;;;;;;5080637;28;20489;-78
2022/04/23 14:15:02;;;;;;;25.50;19.00;;;;;;;;;;5088248;28;20028;-76
2022/04/23 14:17:28;;;;;;;27.92;16.75;;;;;;;;;;5090959;28;20050;-77
2022/04/23 14:19:54;;;;;;;26.30;16.92;;;;;;;;;;5083738;28;20036;-78
2022/04/23 14:22:20;;;;;;;21.67;16.58;;;;;;;;;;5086641;28;20432;-76
2022/04/23 14:24:46;;;;;;;26.70;16.45;;;;;;;;;;5084613;28;20070;-78
2022/04/23 14:27:12;;;;;;;19.27;15.98;;;;;;;;;;5088665;28;20028;-77
2022/04/23 14:29:38;;;;;;;24.55;16.08;;;;;;;;;;5076958;28;20080;-77
2022/04/23 14:32:05;;;;;;;23.15;15.40;;;;;;;;;;5059544;28;20033;-76
2022/04/23 14:34:31;;;;;;;24.83;14.75;;;;;;;;;;5064784;28;20485;-79
2022/04/23 14:36:57;;;;;;;19.70;14.85;;;;;;;;;;5066228;28;20050;-78
2022/04/23 14:39:23;;;;;;;18.40;14.82;;;;;;;;;;5071264;28;20080;-81
2022/04/23 14:41:49;;;;;;;21.90;13.57;;;;;;;;;;5057696;28;20040;-79
2022/04/23 14:44:16;;;;;;;25.08;13.63;;;;;;;;;;5068885;28;20326;-77
2022/04/23 14:46:42;;;;;;;21.58;14.70;;;;;;;;;;5067305;28;20039;-79
2022/04/23 14:49:08;;;;;;;22.77;14.60;;;;;;;;;;5076363;28;20199;-80
2022/04/23 14:54:19;;;;;;;27.40;14.00;;;;;;;;;;5068524;28;20044;-77
2022/04/23 14:56:45;;;;;;;23.65;14.10;;;;;;;;;;5068817;28;20054;-79
2022/04/23 14:59:12;;;;;;;19.33;14.15;;;;;;;;;;5076028;28;20083;-78
2022/04/23 15:01:39;;;;;;;18.52;13.77;;;;;;;;;;5048694;28;20025;-77
2022/04/23 15:04:11;;;;;;;18.58;13.80;;;;;;;;;;5065685;28;20097;-76
2022/04/23 15:06:39;;;;;;;18.05;13.55;;;;;;;;;;5067370;28;20028;-79
2022/04/23 15:09:06;;;;;;;18.58;14.10;;;;;;;;;;5070530;28;20033;-78
2022/04/23 15:11:32;;;;;;;17.40;13.20;;;;;;;;;;5069595;28;20044;-80